Time;durP1;ratioP1;P1;durP2;ratioP2;P2;SDS_P1;SDS_P2;PMS_P1;PMS_P2;Temp;Humidity;BMP_temperature;BMP_pressure;BME280_temperature;BME280_humidity;BME280_pressure;Samples;Min_cycle;Max_cycle;Signal;HPM_P1;HPM_P2
2023/04/14 00:00:14;;;;;;;;;;;;;;;15.52;59.31;100488.69;1272559;23;1230;-68
2023/04/14 00:01:04;;;;;;;;;;;;;;;15.52;59.67;100491.38;1272802;23;609;-68
2023/04/14 00:01:55;;;;;;;;;;;;;;;15.49;59.66;100493.47;1272764;23;1952;-68
2023/04/14 00:02:46;;;;;;;;;;;;;;;15.50;59.91;100489.81;1272844;23;644;-67
2023/04/14 00:03:36;;;;;;;;;;;;;;;15.51;59.89;100497.72;1272111;23;653;-67
2023/04/14 00:04:27;;;;;;;;;;;;;;;15.51;59.29;100491.50;1274610;23;656;-67
2023/04/14 00:05:17;;;;;;;;;;;;;;;15.51;59.24;100486.97;1271838;23;648;-67
2023/04/14 00:06:08;;;;;;;;;;;;;;;15.50;59.54;100490.66;1272875;23;618;-68
2023/04/14 00:06:58;;;;;;;;;;;;;;;15.49;59.56;100494.31;1274463;23;621;-68
2023/04/14 00:07:49;;;;;;;;;;;;;;;15.51;59.48;100492.34;1273722;23;648;-68
2023/04/14 00:08:40;;;;;;;;;;;;;;;15.51;59.63;100489.66;1272058;23;494;-68
2023/04/14 00:09:30;;;;;;;;;;;;;;;15.51;59.86;100489.66;1274522;23;632;-67
2023/04/14 00:10:20;;;;;;;;;;;;;;;15.50;59.86;100490.66;1272767;23;622;-68
2023/04/14 00:11:11;;;;;;;;;;;;;;;15.48;59.46;100484.56;1272171;23;653;-67
2023/04/14 00:12:01;;;;;;;;;;;;;;;15.48;59.39;100487.25;1271936;23;769;-67
2023/04/14 00:12:52;;;;;;;;;;;;;;;15.48;59.31;100481.88;1272796;23;983;-68
2023/04/14 00:13:42;;;;;;;;;;;;;;;15.47;59.86;100490.94;1272889;23;609;-68
2023/04/14 00:14:32;;;;;;;;;;;;;;;15.48;59.24;100486.41;1272759;23;633;-67
2023/04/14 00:15:23;;;;;;;;;;;;;;;15.47;59.76;100496.31;1272680;23;618;-67
2023/04/14 00:16:13;;;;;;;;;;;;;;;15.43;59.79;100484.13;1272664;23;614;-67
2023/04/14 00:17:04;;;;;;;;;;;;;;;15.44;59.32;100490.34;1273743;23;681;-67
2023/04/14 00:17:54;;;;;;;;;;;;;;;15.44;59.31;100491.19;1272627;23;617;-68
2023/04/14 00:18:45;;;;;;;;;;;;;;;15.44;59.39;100496.56;1272885;23;697;-67
2023/04/14 00:19:35;;;;;;;;;;;;;;;15.46;59.78;100489.22;1271964;23;630;-67
2023/04/14 00:20:26;;;;;;;;;;;;;;;15.45;59.55;100498.28;1272916;23;716;-67
2023/04/14 00:21:16;;;;;;;;;;;;;;;15.45;59.77;100498.28;1272225;23;828;-68
2023/04/14 00:22:07;;;;;;;;;;;;;;;15.44;59.26;100493.03;1271889;23;1889;-67
2023/04/14 00:22:57;;;;;;;;;;;;;;;15.41;59.27;100494.16;1271893;23;605;-68
2023/04/14 00:23:48;;;;;;;;;;;;;;;15.41;59.25;100494.16;1271843;23;649;-67
2023/04/14 00:24:42;;;;;;;;;;;;;;;15.42;59.61;100495.84;1273313;23;649;-67
2023/04/14 00:25:32;;;;;;;;;;;;;;;15.42;59.40;100490.50;1273654;23;629;-67
2023/04/14 00:26:23;;;;;;;;;;;;;;;15.42;59.33;100493.19;1274714;23;668;-67
2023/04/14 00:27:13;;;;;;;;;;;;;;;15.41;59.57;100494.16;1272694;23;646;-66
2023/04/14 00:28:04;;;;;;;;;;;;;;;15.41;59.28;100496.00;1272904;23;681;-66
2023/04/14 00:28:54;;;;;;;;;;;;;;;15.42;59.50;100492.31;1272783;23;649;-67
2023/04/14 00:29:45;;;;;;;;;;;;;;;15.41;59.27;100488.78;1272860;23;617;-67
2023/04/14 00:30:35;;;;;;;;;;;;;;;15.40;59.53;100491.66;1272670;23;666;-66
2023/04/14 00:31:26;;;;;;;;;;;;;;;15.40;59.15;100492.50;1274371;23;621;-66
2023/04/14 00:32:16;;;;;;;;;;;;;;;15.38;59.67;100482.88;1274502;23;598;-66
2023/04/14 00:33:07;;;;;;;;;;;;;;;15.38;59.18;100489.09;1272947;23;606;-66
2023/04/14 00:33:57;;;;;;;;;;;;;;;15.39;59.54;100487.25;1274424;23;621;-66
2023/04/14 00:34:47;;;;;;;;;;;;;;;15.39;59.22;100489.94;1272733;23;629;-66
2023/04/14 00:35:38;;;;;;;;;;;;;;;15.39;59.34;100493.47;1273846;23;605;-66
2023/04/14 00:36:28;;;;;;;;;;;;;;;15.38;59.39;100485.56;1272735;23;677;-67
2023/04/14 00:37:19;;;;;;;;;;;;;;;15.37;59.81;100490.09;1272844;23;672;-67
2023/04/14 00:38:09;;;;;;;;;;;;;;;15.36;59.47;100488.38;1272617;23;609;-67
2023/04/14 00:39:00;;;;;;;;;;;;;;;15.36;59.40;100493.75;1272070;23;653;-67
2023/04/14 00:39:50;;;;;;;;;;;;;;;15.37;59.16;100489.22;1274504;23;641;-67
2023/04/14 00:40:40;;;;;;;;;;;;;;;15.36;59.80;100490.22;1272829;23;684;-67
2023/04/14 00:41:31;;;;;;;;;;;;;;;15.36;59.29;100493.75;1274552;23;625;-67
2023/04/14 00:42:21;;;;;;;;;;;;;;;15.36;59.42;100484.84;1272648;23;1928;-67
2023/04/14 00:43:12;;;;;;;;;;;;;;;15.36;59.72;100483.00;1272571;23;633;-67
2023/04/14 00:44:02;;;;;;;;;;;;;;;15.37;59.26;100498.13;1271949;23;661;-67
2023/04/14 00:44:53;;;;;;;;;;;;;;;15.36;59.19;100492.91;1272838;23;758;-67
2023/04/14 00:45:43;;;;;;;;;;;;;;;15.36;59.54;100493.75;1274532;23;610;-67
2023/04/14 00:46:34;;;;;;;;;;;;;;;15.36;59.27;100496.44;1272619;23;629;-67
2023/04/14 00:47:24;;;;;;;;;;;;;;;15.35;59.54;100497.41;1272624;23;630;-67
2023/04/14 00:48:15;;;;;;;;;;;;;;;15.35;59.55;100497.41;1271823;23;661;-67
2023/04/14 00:49:06;;;;;;;;;;;;;;;15.34;59.62;100493.03;1272011;23;677;-67
2023/04/14 00:49:56;;;;;;;;;;;;;;;15.33;59.50;100498.53;1273674;23;621;-68
2023/04/14 00:50:46;;;;;;;;;;;;;;;15.30;59.59;100510.41;1272739;23;700;-67
2023/04/14 00:51:37;;;;;;;;;;;;;;;15.31;59.30;100501.38;1272552;23;605;-67
2023/04/14 00:52:27;;;;;;;;;;;;;;;15.31;59.73;100511.25;1271911;23;628;-68
2023/04/14 00:53:18;;;;;;;;;;;;;;;15.32;59.78;100512.94;1271572;23;672;-68
2023/04/14 00:54:09;;;;;;;;;;;;;;;15.31;59.93;100512.09;1273299;23;629;-68
2023/04/14 00:54:59;;;;;;;;;;;;;;;15.31;59.56;100509.41;1273552;23;661;-68
2023/04/14 00:55:50;;;;;;;;;;;;;;;15.32;59.57;100510.28;1272721;23;809;-68
2023/04/14 00:56:40;;;;;;;;;;;;;;;15.30;59.91;100515.78;1271954;23;641;-68
2023/04/14 00:57:31;;;;;;;;;;;;;;;15.30;59.83;100513.09;1272515;23;700;-68
2023/04/14 00:58:21;;;;;;;;;;;;;;;15.31;59.63;100512.09;1271918;23;629;-68
2023/04/14 00:59:12;;;;;;;;;;;;;;;15.31;59.65;100517.47;1272953;23;685;-69
2023/04/14 01:00:04;;;;;;;;;;;;;;;15.32;59.77;100511.13;1272382;23;1162;-68
2023/04/14 01:00:54;;;;;;;;;;;;;;;15.33;60.11;100510.13;1271694;23;661;-68
2023/04/14 01:01:45;;;;;;;;;;;;;;;15.34;59.64;100519.03;1272551;23;645;-68
2023/04/14 01:02:35;;;;;;;;;;;;;;;15.33;59.66;100518.19;1274409;23;660;-68
2023/04/14 01:03:25;;;;;;;;;;;;;;;15.34;60.05;100519.03;1272728;23;634;-68
2023/04/14 01:04:16;;;;;;;;;;;;;;;15.34;59.93;100514.50;1272695;23;680;-68
2023/04/14 01:05:06;;;;;;;;;;;;;;;15.34;59.91;100525.25;1272645;23;649;-68
2023/04/14 01:05:57;;;;;;;;;;;;;;;15.34;59.69;100527.94;1272681;23;642;-68
2023/04/14 01:06:47;;;;;;;;;;;;;;;15.32;59.55;100524.53;1272613;23;646;-68
2023/04/14 01:07:38;;;;;;;;;;;;;;;15.32;60.00;100523.69;1272613;23;642;-68
2023/04/14 01:08:28;;;;;;;;;;;;;;;15.31;59.49;100524.69;1272457;23;630;-68
2023/04/14 01:09:18;;;;;;;;;;;;;;;15.31;59.53;100525.53;1272560;23;661;-68
2023/04/14 01:10:09;;;;;;;;;;;;;;;15.29;59.68;100522.97;1272735;23;666;-67
2023/04/14 01:11:00;;;;;;;;;;;;;;;15.30;59.42;100531.88;1272513;23;618;-66
2023/04/14 01:11:50;;;;;;;;;;;;;;;15.28;60.06;100528.47;1272716;23;602;-68
2023/04/14 01:12:41;;;;;;;;;;;;;;;15.29;59.53;100519.44;1272815;23;713;-67
2023/04/14 01:13:32;;;;;;;;;;;;;;;15.27;59.60;100524.09;1272463;23;606;-66
2023/04/14 01:14:22;;;;;;;;;;;;;;;15.27;59.71;100527.63;1272688;23;618;-66
2023/04/14 01:15:13;;;;;;;;;;;;;;;15.27;59.80;100529.47;1272721;23;630;-66
2023/04/14 01:16:03;;;;;;;;;;;;;;;15.25;59.89;100528.75;1272659;23;665;-66
2023/04/14 01:16:54;;;;;;;;;;;;;;;15.26;59.85;100527.75;1272696;23;614;-66
2023/04/14 01:17:45;;;;;;;;;;;;;;;15.26;60.04;100525.94;1272569;23;622;-66
2023/04/14 01:18:35;;;;;;;;;;;;;;;15.27;59.93;100532.16;1271573;23;641;-67
2023/04/14 01:19:25;;;;;;;;;;;;;;;15.27;59.73;100529.47;1272531;23;621;-67
2023/04/14 01:20:16;;;;;;;;;;;;;;;15.23;60.10;100520.84;1273402;23;660;-67
2023/04/14 01:21:06;;;;;;;;;;;;;;;15.23;59.96;100528.88;1272466;23;642;-66
2023/04/14 01:21:57;;;;;;;;;;;;;;;15.23;59.86;100526.19;1271946;23;665;-67
2023/04/14 01:22:47;;;;;;;;;;;;;;;15.25;59.40;100528.75;1271442;23;598;-67
2023/04/14 01:23:38;;;;;;;;;;;;;;;15.25;59.82;100524.22;1272651;23;685;-67
2023/04/14 01:24:28;;;;;;;;;;;;;;;15.23;60.05;100523.50;1272456;23;725;-66
2023/04/14 01:25:21;;;;;;;;;;;;;;;15.24;60.00;100527.06;1271744;23;606;-69
2023/04/14 01:26:11;;;;;;;;;;;;;;;15.24;60.15;100533.28;1271581;23;573;-69
2023/04/14 01:27:02;;;;;;;;;;;;;;;15.23;59.65;100519.97;1272551;23;602;-69
2023/04/14 01:27:52;;;;;;;;;;;;;;;15.23;59.88;100526.19;1274411;23;640;-69
2023/04/14 01:28:42;;;;;;;;;;;;;;;15.24;59.57;100525.22;1272593;23;649;-69
2023/04/14 01:29:33;;;;;;;;;;;;;;;15.22;59.73;100529.91;1272740;23;618;-69
2023/04/14 01:30:23;;;;;;;;;;;;;;;15.22;60.08;100526.38;1271763;23;646;-68
2023/04/14 01:31:14;;;;;;;;;;;;;;;15.23;60.02;100528.88;1272611;23;705;-67
2023/04/14 01:32:05;;;;;;;;;;;;;;;15.23;59.47;100528.03;1272720;23;676;-67
2023/04/14 01:32:55;;;;;;;;;;;;;;;15.23;59.84;100525.34;1272453;23;622;-67
2023/04/14 01:33:46;;;;;;;;;;;;;;;15.23;59.70;100528.03;1272031;23;700;-67
2023/04/14 01:34:36;;;;;;;;;;;;;;;15.21;60.07;100525.53;1272482;23;614;-67
2023/04/14 01:35:26;;;;;;;;;;;;;;;15.23;59.90;100522.66;1272531;23;668;-67
2023/04/14 01:36:17;;;;;;;;;;;;;;;15.21;59.47;100527.34;1272478;23;838;-68
2023/04/14 01:37:07;;;;;;;;;;;;;;;15.23;60.22;100533.41;1272432;23;622;-68
2023/04/14 01:37:58;;;;;;;;;;;;;;;15.22;60.17;100529.06;1272552;23;637;-67
2023/04/14 01:38:48;;;;;;;;;;;;;;;15.20;59.89;100526.50;1272478;23;609;-67
2023/04/14 01:39:38;;;;;;;;;;;;;;;15.20;59.88;100531.03;1272474;23;642;-67
2023/04/14 01:40:29;;;;;;;;;;;;;;;15.21;59.88;100530.88;1272606;23;633;-67
2023/04/14 01:41:19;;;;;;;;;;;;;;;15.21;60.11;100530.88;1272464;23;606;-66
2023/04/14 01:42:10;;;;;;;;;;;;;;;15.21;60.19;100524.66;1272554;23;1930;-67
2023/04/14 01:43:01;;;;;;;;;;;;;;;15.21;59.62;100530.03;1272517;23;654;-68
2023/04/14 01:43:51;;;;;;;;;;;;;;;15.20;60.04;100531.88;1273407;23;605;-67
2023/04/14 01:44:42;;;;;;;;;;;;;;;15.20;59.79;100536.38;1272705;23;638;-67
2023/04/14 01:45:32;;;;;;;;;;;;;;;15.17;60.22;100531.28;1271711;23;658;-67
2023/04/14 01:46:23;;;;;;;;;;;;;;;15.17;59.62;100531.28;1272618;23;684;-67
2023/04/14 01:47:13;;;;;;;;;;;;;;;15.18;59.83;100531.16;1272446;23;681;-68
2023/04/14 01:48:04;;;;;;;;;;;;;;;15.18;60.11;100533.84;1271996;23;613;-68
2023/04/14 01:48:55;;;;;;;;;;;;;;;15.17;59.85;100531.28;1272526;23;646;-68
2023/04/14 01:49:46;;;;;;;;;;;;;;;15.15;60.16;100534.09;1274362;23;621;-68
2023/04/14 01:50:36;;;;;;;;;;;;;;;15.16;59.85;100537.63;1272481;23;655;-68
2023/04/14 01:51:27;;;;;;;;;;;;;;;15.15;59.88;100535.94;1272583;23;652;-68
2023/04/14 01:52:17;;;;;;;;;;;;;;;15.15;60.01;100535.94;1273234;23;770;-67
2023/04/14 01:53:08;;;;;;;;;;;;;;;15.14;59.59;100536.94;1272594;23;656;-67
2023/04/14 01:53:58;;;;;;;;;;;;;;;15.13;59.90;100528.03;1271487;23;637;-67
2023/04/14 01:54:48;;;;;;;;;;;;;;;15.14;59.84;100529.72;1272494;23;602;-67
2023/04/14 01:55:39;;;;;;;;;;;;;;;15.14;59.85;100537.78;1271811;23;601;-67
2023/04/14 01:56:30;;;;;;;;;;;;;;;15.13;59.86;100530.72;1272463;23;649;-67
2023/04/14 01:57:21;;;;;;;;;;;;;;;15.13;59.81;100530.72;1272536;23;779;-67
2023/04/14 01:58:12;;;;;;;;;;;;;;;15.14;59.59;100532.41;1271858;23;759;-67
2023/04/14 01:59:02;;;;;;;;;;;;;;;15.15;60.00;100533.25;1274319;23;665;-67
2023/04/14 01:59:52;;;;;;;;;;;;;;;15.12;60.07;100529.00;1272435;23;1099;-67
2023/04/14 02:00:43;;;;;;;;;;;;;;;15.12;59.83;100533.53;1272612;23;751;-67
2023/04/14 02:01:33;;;;;;;;;;;;;;;15.12;59.93;100537.06;1272582;23;621;-67
2023/04/14 02:02:24;;;;;;;;;;;;;;;15.12;59.81;100538.88;1271992;23;1932;-66
2023/04/14 02:03:14;;;;;;;;;;;;;;;15.12;59.59;100534.38;1271614;23;625;-67
2023/04/14 02:04:05;;;;;;;;;;;;;;;15.13;59.86;100537.91;1272499;23;638;-66
2023/04/14 02:04:56;;;;;;;;;;;;;;;15.12;59.76;100545.09;1274259;23;692;-67
2023/04/14 02:05:47;;;;;;;;;;;;;;;15.11;59.73;100538.03;1271628;23;609;-67
2023/04/14 02:06:37;;;;;;;;;;;;;;;15.10;59.76;100535.50;1272614;23;629;-67
2023/04/14 02:07:27;;;;;;;;;;;;;;;15.10;59.97;100544.38;1272374;23;598;-67
2023/04/14 02:08:18;;;;;;;;;;;;;;;15.10;59.67;100546.22;1271785;23;658;-67
2023/04/14 02:09:11;;;;;;;;;;;;;;;15.10;59.46;100543.53;1274224;23;597;-67
2023/04/14 02:10:01;;;;;;;;;;;;;;;15.08;59.42;100537.47;1272460;23;622;-67
2023/04/14 02:10:52;;;;;;;;;;;;;;;15.07;60.08;100541.97;1272489;23;602;-67
2023/04/14 02:11:42;;;;;;;;;;;;;;;15.05;59.59;100541.25;1273408;23;696;-67
2023/04/14 02:12:32;;;;;;;;;;;;;;;15.05;59.86;100537.75;1272580;23;634;-67
2023/04/14 02:13:23;;;;;;;;;;;;;;;15.05;59.87;100540.44;1272001;23;637;-67
2023/04/14 02:14:13;;;;;;;;;;;;;;;15.04;59.53;100547.63;1272512;23;605;-67
2023/04/14 02:15:04;;;;;;;;;;;;;;;15.05;59.91;100543.13;1272991;23;614;-67
2023/04/14 02:15:54;;;;;;;;;;;;;;;15.05;59.74;100546.63;1271653;23;657;-67
2023/04/14 02:16:45;;;;;;;;;;;;;;;15.07;59.81;100546.50;1272599;23;637;-67
2023/04/14 02:17:35;;;;;;;;;;;;;;;15.04;59.74;100546.78;1274361;23;634;-67
2023/04/14 02:18:26;;;;;;;;;;;;;;;15.04;59.64;100541.41;1272536;23;934;-67
2023/04/14 02:19:16;;;;;;;;;;;;;;;15.03;59.63;100547.78;1271686;23;688;-67
2023/04/14 02:20:06;;;;;;;;;;;;;;;15.04;59.82;100542.28;1271573;23;641;-67
2023/04/14 02:20:57;;;;;;;;;;;;;;;15.03;59.72;100539.72;1272531;23;669;-67
2023/04/14 02:21:47;;;;;;;;;;;;;;;15.05;59.99;100540.44;1272447;23;645;-67
2023/04/14 02:22:38;;;;;;;;;;;;;;;15.04;59.37;100544.97;1271753;23;689;-67
2023/04/14 02:23:28;;;;;;;;;;;;;;;15.03;59.76;100547.78;1272575;23;625;-67
2023/04/14 02:24:19;;;;;;;;;;;;;;;15.05;59.87;100540.44;1274244;23;609;-66
2023/04/14 02:25:10;;;;;;;;;;;;;;;15.04;59.47;100544.09;1271921;23;645;-67
2023/04/14 02:26:00;;;;;;;;;;;;;;;15.04;59.64;100547.63;1271243;23;634;-67
2023/04/14 02:26:51;;;;;;;;;;;;;;;15.05;60.01;100548.50;1273068;23;717;-67
2023/04/14 02:27:41;;;;;;;;;;;;;;;15.04;59.44;100550.31;1273427;23;614;-67
2023/04/14 02:28:32;;;;;;;;;;;;;;;15.04;59.77;100553.00;1272602;23;622;-66
2023/04/14 02:29:22;;;;;;;;;;;;;;;15.04;59.40;100552.16;1274161;23;637;-67
2023/04/14 02:30:12;;;;;;;;;;;;;;;15.04;59.57;100549.47;1271891;23;622;-67
2023/04/14 02:31:03;;;;;;;;;;;;;;;15.03;59.67;100553.13;1272574;23;618;-67
2023/04/14 02:31:53;;;;;;;;;;;;;;;15.02;59.96;100556.81;1272516;23;618;-67
2023/04/14 02:32:44;;;;;;;;;;;;;;;15.01;59.49;100553.28;1271798;23;656;-67
2023/04/14 02:33:35;;;;;;;;;;;;;;;15.00;59.56;100558.78;1274149;23;657;-67
2023/04/14 02:34:26;;;;;;;;;;;;;;;15.00;59.79;100553.41;1273044;23;664;-67
2023/04/14 02:35:16;;;;;;;;;;;;;;;15.02;59.59;100548.75;1272807;23;700;-67
2023/04/14 02:36:07;;;;;;;;;;;;;;;15.01;59.46;100549.75;1272891;23;614;-67
2023/04/14 02:36:57;;;;;;;;;;;;;;;15.01;59.37;100549.75;1271897;23;669;-67
2023/04/14 02:37:47;;;;;;;;;;;;;;;14.96;59.54;100558.19;1273330;23;652;-67
2023/04/14 02:38:38;;;;;;;;;;;;;;;14.96;60.10;100555.50;1273781;23;664;-67
2023/04/14 02:39:28;;;;;;;;;;;;;;;14.96;59.85;100563.56;1274600;23;735;-67
2023/04/14 02:40:19;;;;;;;;;;;;;;;14.95;60.09;100559.16;1272913;23;653;-67
2023/04/14 02:41:09;;;;;;;;;;;;;;;14.95;60.04;100556.47;1273714;23;739;-67
2023/04/14 02:42:01;;;;;;;;;;;;;;;14.94;59.91;100550.25;1272888;23;661;-67
2023/04/14 02:42:51;;;;;;;;;;;;;;;14.97;59.73;100551.00;1271978;23;696;-68
2023/04/14 02:43:41;;;;;;;;;;;;;;;14.97;59.60;100556.34;1272800;23;716;-67
2023/04/14 02:44:32;;;;;;;;;;;;;;;14.97;59.82;100553.66;1272992;23;671;-67
2023/04/14 02:45:22;;;;;;;;;;;;;;;14.97;59.66;100556.34;1272970;23;622;-67
2023/04/14 02:46:13;;;;;;;;;;;;;;;14.94;59.73;100563.69;1272333;23;657;-67
2023/04/14 02:47:05;;;;;;;;;;;;;;;14.93;59.55;100551.25;1272069;23;586;-67
2023/04/14 02:47:56;;;;;;;;;;;;;;;14.93;59.98;100550.41;1272881;23;637;-67
2023/04/14 02:48:46;;;;;;;;;;;;;;;14.92;59.55;100554.91;1272338;23;649;-67
2023/04/14 02:49:36;;;;;;;;;;;;;;;14.93;59.94;100556.63;1272041;23;645;-67
2023/04/14 02:50:27;;;;;;;;;;;;;;;14.93;59.39;100556.63;1272954;23;637;-67
2023/04/14 02:51:17;;;;;;;;;;;;;;;14.92;59.71;100554.91;1272827;23;653;-67
2023/04/14 02:52:08;;;;;;;;;;;;;;;14.90;59.63;100554.19;1272844;23;645;-67
2023/04/14 02:52:58;;;;;;;;;;;;;;;14.91;59.90;100558.59;1272821;23;688;-67
2023/04/14 02:53:49;;;;;;;;;;;;;;;14.90;59.77;100556.88;1272866;23;650;-67
2023/04/14 02:54:39;;;;;;;;;;;;;;;14.88;59.55;100553.47;1272893;23;626;-67
2023/04/14 02:55:29;;;;;;;;;;;;;;;14.88;60.08;100548.13;1272869;23;634;-67
2023/04/14 02:56:20;;;;;;;;;;;;;;;14.89;59.59;100555.19;1272821;23;642;-67
2023/04/14 02:57:10;;;;;;;;;;;;;;;14.89;59.58;100549.81;1274689;23;641;-66
2023/04/14 02:58:01;;;;;;;;;;;;;;;14.87;59.85;100559.81;1272809;23;594;-66
2023/04/14 02:58:51;;;;;;;;;;;;;;;14.88;59.78;100558.84;1273686;23;998;-67
2023/04/14 02:59:42;;;;;;;;;;;;;;;14.88;59.64;100553.47;1272769;23;614;-66
2023/04/14 03:00:32;;;;;;;;;;;;;;;14.88;59.56;100550.78;1271409;23;653;-66
2023/04/14 03:01:23;;;;;;;;;;;;;;;14.89;59.85;100554.31;1271639;23;669;-67
2023/04/14 03:02:13;;;;;;;;;;;;;;;14.89;59.71;100552.50;1273358;23;1900;-66
2023/04/14 03:03:03;;;;;;;;;;;;;;;14.88;59.71;100552.63;1273584;23;605;-67
2023/04/14 03:03:54;;;;;;;;;;;;;;;14.85;60.10;100555.59;1272882;23;622;-67
2023/04/14 03:04:44;;;;;;;;;;;;;;;14.82;60.14;100548.66;1271919;23;673;-67
2023/04/14 03:05:35;;;;;;;;;;;;;;;14.83;59.76;100550.38;1272840;23;602;-67
2023/04/14 03:06:26;;;;;;;;;;;;;;;14.83;59.46;100550.38;1272375;23;712;-67
2023/04/14 03:07:16;;;;;;;;;;;;;;;14.87;59.50;100550.94;1272862;23;656;-66
2023/04/14 03:08:07;;;;;;;;;;;;;;;14.86;59.73;100560.00;1272782;23;602;-66
2023/04/14 03:08:58;;;;;;;;;;;;;;;14.87;60.00;100554.47;1274641;23;602;-66
2023/04/14 03:09:49;;;;;;;;;;;;;;;14.85;59.74;100552.91;1271185;23;622;-66
2023/04/14 03:10:39;;;;;;;;;;;;;;;14.84;59.62;100556.59;1271967;23;614;-66
2023/04/14 03:11:30;;;;;;;;;;;;;;;14.84;59.39;100552.06;1272914;23;669;-66
2023/04/14 03:12:20;;;;;;;;;;;;;;;14.83;60.03;100555.72;1274594;23;648;-66
2023/04/14 03:13:11;;;;;;;;;;;;;;;14.83;59.20;100561.09;1272009;23;657;-66
2023/04/14 03:14:01;;;;;;;;;;;;;;;14.84;59.83;100559.28;1272574;23;605;-66
2023/04/14 03:14:52;;;;;;;;;;;;;;;14.83;60.00;100561.09;1272275;23;622;-66
2023/04/14 03:15:42;;;;;;;;;;;;;;;14.82;59.60;100567.44;1272902;23;638;-66
2023/04/14 03:16:33;;;;;;;;;;;;;;;14.82;59.55;100562.09;1272834;23;622;-66
2023/04/14 03:17:23;;;;;;;;;;;;;;;14.83;59.18;100565.63;1273016;23;617;-66
2023/04/14 03:18:14;;;;;;;;;;;;;;;14.83;59.41;100571.84;1272836;23;625;-67
2023/04/14 03:19:05;;;;;;;;;;;;;;;14.84;59.95;100567.31;1272747;23;614;-66
2023/04/14 03:19:55;;;;;;;;;;;;;;;14.83;59.92;100570.97;1273009;23;622;-66
2023/04/14 03:20:46;;;;;;;;;;;;;;;14.83;59.64;100563.78;1272765;23;602;-66
2023/04/14 03:21:36;;;;;;;;;;;;;;;14.84;59.39;100575.38;1273031;23;638;-68
2023/04/14 03:22:27;;;;;;;;;;;;;;;14.80;60.03;100572.09;1272755;23;1928;-67
2023/04/14 03:23:19;;;;;;;;;;;;;;;14.80;59.95;100566.72;1272839;23;633;-68
2023/04/14 03:24:11;;;;;;;;;;;;;;;14.83;59.56;100570.97;1273010;23;696;-67
2023/04/14 03:25:01;;;;;;;;;;;;;;;14.80;59.66;100566.72;1273596;23;672;-67
2023/04/14 03:25:52;;;;;;;;;;;;;;;14.79;60.04;100570.38;1271655;23;673;-67
2023/04/14 03:26:42;;;;;;;;;;;;;;;14.81;59.48;100571.13;1273386;23;624;-67
2023/04/14 03:27:32;;;;;;;;;;;;;;;14.78;59.75;100573.19;1273688;23;684;-67
2023/04/14 03:28:23;;;;;;;;;;;;;;;14.79;59.45;100570.38;1272942;23;696;-67
2023/04/14 03:29:14;;;;;;;;;;;;;;;14.79;59.71;100573.06;1274513;23;716;-67
2023/04/14 03:30:05;;;;;;;;;;;;;;;14.80;59.51;100569.41;1272269;23;613;-67
2023/04/14 03:30:56;;;;;;;;;;;;;;;14.82;59.40;100575.50;1272777;23;648;-65
2023/04/14 03:31:46;;;;;;;;;;;;;;;14.83;59.46;100579.88;1271413;23;657;-67
2023/04/14 03:32:40;;;;;;;;;;;;;;;14.80;59.79;100569.41;1273356;23;744;-67
2023/04/14 03:33:31;;;;;;;;;;;;;;;14.80;59.51;100576.59;1273690;23;609;-67
2023/04/14 03:34:21;;;;;;;;;;;;;;;14.80;59.70;100576.59;1272335;23;646;-65
2023/04/14 03:35:13;;;;;;;;;;;;;;;14.78;59.33;100582.09;1272866;23;633;-67
2023/04/14 03:36:04;;;;;;;;;;;;;;;14.78;59.87;100579.41;1272830;23;653;-67
2023/04/14 03:36:54;;;;;;;;;;;;;;;14.77;59.78;100575.03;1272248;23;566;-67
2023/04/14 03:37:45;;;;;;;;;;;;;;;14.78;59.80;100575.88;1272873;23;699;-68
2023/04/14 03:38:35;;;;;;;;;;;;;;;14.80;59.88;100582.81;1272775;23;804;-67
2023/04/14 03:39:26;;;;;;;;;;;;;;;14.81;59.88;100573.78;1272842;23;634;-67
2023/04/14 03:40:17;;;;;;;;;;;;;;;14.80;59.62;100582.81;1272757;23;598;-68
2023/04/14 03:41:08;;;;;;;;;;;;;;;14.82;59.58;100580.00;1272797;23;664;-67
2023/04/14 03:42:00;;;;;;;;;;;;;;;14.80;59.79;100580.16;1271913;23;616;-67
2023/04/14 03:42:51;;;;;;;;;;;;;;;14.79;59.74;100574.91;1272871;23;609;-65
2023/04/14 03:43:41;;;;;;;;;;;;;;;14.79;59.41;100573.06;1274573;23;652;-67
2023/04/14 03:44:34;;;;;;;;;;;;;;;14.78;59.53;100574.06;1272078;23;649;-67
2023/04/14 03:45:25;;;;;;;;;;;;;;;14.79;59.79;100574.91;1271651;23;594;-67
2023/04/14 03:46:15;;;;;;;;;;;;;;;14.79;59.34;100577.59;1272821;23;789;-67
2023/04/14 03:47:07;;;;;;;;;;;;;;;14.78;59.36;100573.19;1274629;23;617;-68
2023/04/14 03:47:57;;;;;;;;;;;;;;;14.80;59.27;100576.59;1272028;23;700;-68
2023/04/14 03:48:49;;;;;;;;;;;;;;;14.77;59.72;100582.22;1272599;23;617;-67
2023/04/14 03:49:39;;;;;;;;;;;;;;;14.76;59.84;100570.66;1271928;23;677;-67
2023/04/14 03:50:30;;;;;;;;;;;;;;;14.77;59.37;100583.09;1267018;23;676;-67
2023/04/14 03:51:20;;;;;;;;;;;;;;;14.76;59.34;100580.53;1273120;23;649;-67
2023/04/14 03:52:11;;;;;;;;;;;;;;;14.76;59.21;100584.06;1271951;23;652;-68
2023/04/14 03:53:01;;;;;;;;;;;;;;;14.78;59.61;100583.94;1271468;23;677;-67
2023/04/14 03:53:52;;;;;;;;;;;;;;;14.76;59.34;100589.44;1273298;23;648;-67
2023/04/14 03:54:42;;;;;;;;;;;;;;;14.76;59.90;100585.91;1273696;23;664;-67
2023/04/14 03:55:32;;;;;;;;;;;;;;;14.77;59.36;100576.88;1272732;23;613;-67
2023/04/14 03:56:23;;;;;;;;;;;;;;;14.74;59.38;100577.97;1271601;23;652;-68
2023/04/14 03:57:16;;;;;;;;;;;;;;;14.74;59.37;100583.34;1273244;23;668;-67
2023/04/14 03:58:07;;;;;;;;;;;;;;;14.72;59.34;100582.63;1273624;23;699;-67
2023/04/14 03:58:58;;;;;;;;;;;;;;;14.72;59.77;100576.41;1271869;23;610;-68
2023/04/14 03:59:49;;;;;;;;;;;;;;;14.70;59.95;100581.91;1271798;23;700;-67
2023/04/14 04:00:39;;;;;;;;;;;;;;;14.69;59.91;100579.38;1273225;23;680;-68
2023/04/14 04:01:30;;;;;;;;;;;;;;;14.69;59.52;100582.88;1273234;23;648;-67
2023/04/14 04:02:21;;;;;;;;;;;;;;;14.70;59.70;100584.59;1272357;23;1905;-67
2023/04/14 04:03:11;;;;;;;;;;;;;;;14.71;59.56;100582.75;1272050;23;664;-67
2023/04/14 04:04:02;;;;;;;;;;;;;;;14.69;59.31;100588.25;1271953;23;623;-67
2023/04/14 04:04:52;;;;;;;;;;;;;;;14.70;59.56;100581.91;1271998;23;626;-67
2023/04/14 04:05:43;;;;;;;;;;;;;;;14.69;59.40;100585.56;1272791;23;669;-68
2023/04/14 04:06:35;;;;;;;;;;;;;;;14.68;59.74;100585.72;1272888;23;621;-68
2023/04/14 04:07:26;;;;;;;;;;;;;;;14.69;59.79;100585.56;1272023;23;684;-67
2023/04/14 04:08:17;;;;;;;;;;;;;;;14.68;59.36;100580.38;1272606;23;625;-68
2023/04/14 04:09:07;;;;;;;;;;;;;;;14.68;59.90;100583.91;1272717;23;695;-68
2023/04/14 04:09:58;;;;;;;;;;;;;;;14.67;59.89;100582.19;1271747;23;610;-68
2023/04/14 04:10:48;;;;;;;;;;;;;;;14.67;59.47;100584.03;1272145;23;601;-68
2023/04/14 04:11:39;;;;;;;;;;;;;;;14.66;59.33;100580.50;1272697;23;610;-68
2023/04/14 04:12:29;;;;;;;;;;;;;;;14.66;59.60;100585.00;1272854;23;677;-68
2023/04/14 04:13:19;;;;;;;;;;;;;;;14.66;59.16;100591.22;1274306;23;587;-68
2023/04/14 04:14:10;;;;;;;;;;;;;;;14.64;59.44;100586.97;1272838;23;677;-68
2023/04/14 04:15:00;;;;;;;;;;;;;;;14.64;59.48;100581.59;1274483;23;629;-68
2023/04/14 04:15:51;;;;;;;;;;;;;;;14.66;60.13;100575.13;1272741;23;651;-68
2023/04/14 04:16:41;;;;;;;;;;;;;;;14.67;59.74;100584.88;1274386;23;621;-67
2023/04/14 04:17:32;;;;;;;;;;;;;;;14.65;59.48;100578.78;1272709;23;610;-68
2023/04/14 04:18:22;;;;;;;;;;;;;;;14.66;59.55;100582.31;1272738;23;717;-68
2023/04/14 04:19:13;;;;;;;;;;;;;;;14.66;59.43;100580.50;1272716;23;602;-68
2023/04/14 04:20:03;;;;;;;;;;;;;;;14.66;59.41;100583.19;1272791;23;625;-68
2023/04/14 04:20:53;;;;;;;;;;;;;;;14.62;59.68;100581.72;1271410;23;670;-68
2023/04/14 04:21:44;;;;;;;;;;;;;;;14.61;60.02;100580.03;1273230;23;661;-67
2023/04/14 04:22:34;;;;;;;;;;;;;;;14.64;59.34;100592.31;1273529;23;1913;-67
2023/04/14 04:23:25;;;;;;;;;;;;;;;14.65;60.15;100586.84;1272781;23;618;-68
2023/04/14 04:24:15;;;;;;;;;;;;;;;14.64;60.14;100587.81;1272001;23;661;-68
2023/04/14 04:25:05;;;;;;;;;;;;;;;14.65;60.27;100581.47;1272555;23;618;-68
2023/04/14 04:25:56;;;;;;;;;;;;;;;14.63;60.09;100580.75;1272618;23;646;-68
2023/04/14 04:26:46;;;;;;;;;;;;;;;14.63;60.16;100587.94;1272755;23;613;-68